createdAt,value
2022-11-23T00:00:35.309Z,0.00
2022-11-23T00:01:35.282Z,0.00
2022-11-23T00:02:35.346Z,0.00
2022-11-23T00:03:35.252Z,0.00
2022-11-23T00:04:35.255Z,0.00
2022-11-23T00:05:35.235Z,0.00
2022-11-23T00:06:35.199Z,0.00
2022-11-23T00:07:35.372Z,0.00
2022-11-23T00:08:35.167Z,0.00
2022-11-23T00:09:35.174Z,0.00
2022-11-23T00:10:35.152Z,0.00
2022-11-23T00:11:35.152Z,0.00
2022-11-23T00:12:35.129Z,0.00
2022-11-23T00:13:41.967Z,0.00
2022-11-23T00:14:35.122Z,0.00
2022-11-23T00:15:35.128Z,0.00
2022-11-23T00:16:35.081Z,0.00
2022-11-23T00:17:35.053Z,0.00
2022-11-23T00:18:35.046Z,0.00
2022-11-23T00:19:35.047Z,0.00
2022-11-23T00:20:35.030Z,0.00
2022-11-23T00:21:35.022Z,0.00
2022-11-23T00:22:34.989Z,0.00
2022-11-23T00:23:35.000Z,0.00
2022-11-23T00:24:35.004Z,0.00
2022-11-23T00:25:34.984Z,0.00
2022-11-23T00:26:34.945Z,0.00
2022-11-23T00:27:34.946Z,0.00
2022-11-23T00:28:34.913Z,0.00
2022-11-23T00:29:34.924Z,0.00
2022-11-23T00:30:34.915Z,0.00
2022-11-23T00:31:34.899Z,0.00
2022-11-23T00:32:34.871Z,0.00
2022-11-23T00:33:34.858Z,0.00
2022-11-23T00:34:34.847Z,0.00
2022-11-23T00:35:34.821Z,0.00
2022-11-23T00:36:34.835Z,0.00
2022-11-23T00:37:34.805Z,0.00
2022-11-23T00:38:34.780Z,0.00
2022-11-23T00:39:34.767Z,0.00
2022-11-23T00:40:34.766Z,0.00
2022-11-23T00:41:34.789Z,0.00
2022-11-23T00:42:37.986Z,0.00
2022-11-23T00:43:34.761Z,0.00
2022-11-23T00:44:34.710Z,0.00
2022-11-23T00:45:34.722Z,0.00
2022-11-23T00:46:34.702Z,0.00
2022-11-23T00:47:34.698Z,0.00
2022-11-23T00:48:34.665Z,0.00
2022-11-23T00:49:34.668Z,0.00
2022-11-23T00:50:34.644Z,0.00
2022-11-23T00:51:34.618Z,0.00
2022-11-23T00:52:34.607Z,0.00
2022-11-23T00:53:34.591Z,0.00
2022-11-23T00:54:34.588Z,0.00
2022-11-23T00:55:34.565Z,0.00
2022-11-23T00:56:34.554Z,0.00
2022-11-23T00:57:34.558Z,0.00
2022-11-23T00:58:34.531Z,0.00
2022-11-23T00:59:34.676Z,0.00
2022-11-23T01:00:34.525Z,0.00
2022-11-23T01:01:34.543Z,0.00
2022-11-23T01:02:34.489Z,0.00
2022-11-23T01:03:34.460Z,0.00
2022-11-23T01:04:34.462Z,0.00
2022-11-23T01:05:34.444Z,0.00
2022-11-23T01:06:34.449Z,0.00
2022-11-23T01:07:34.553Z,0.00
2022-11-23T01:08:34.408Z,0.00
2022-11-23T01:09:34.394Z,0.00
2022-11-23T01:10:34.391Z,0.00
2022-11-23T01:11:34.381Z,0.00
2022-11-23T01:12:34.381Z,0.00
2022-11-23T01:13:34.334Z,0.00
2022-11-23T01:14:34.316Z,0.00
2022-11-23T01:15:34.314Z,0.00
2022-11-23T01:16:34.350Z,0.00
2022-11-23T01:17:34.288Z,0.00
2022-11-23T01:18:34.275Z,0.00
2022-11-23T01:19:34.475Z,0.00
2022-11-23T01:20:34.238Z,0.00
2022-11-23T01:21:34.246Z,0.00
2022-11-23T01:22:34.234Z,0.00
2022-11-23T01:23:34.215Z,0.00
2022-11-23T01:24:34.204Z,0.00
2022-11-23T01:25:34.196Z,0.00
2022-11-23T01:26:34.167Z,0.00
2022-11-23T01:27:34.176Z,0.00
2022-11-23T01:28:34.152Z,0.00
2022-11-23T01:29:34.595Z,0.00
2022-11-23T01:30:34.111Z,0.00
2022-11-23T01:31:34.133Z,0.00
2022-11-23T01:32:34.083Z,0.00
2022-11-23T01:33:34.079Z,0.00
2022-11-23T01:34:34.058Z,0.00
2022-11-23T01:35:34.076Z,0.00
2022-11-23T01:36:34.052Z,0.00
2022-11-23T01:37:34.049Z,0.00
2022-11-23T01:38:34.012Z,0.00
2022-11-23T01:39:34.447Z,0.00
2022-11-23T01:40:33.994Z,0.00
2022-11-23T01:41:33.998Z,0.00
2022-11-23T01:42:33.969Z,0.00
2022-11-23T01:43:33.979Z,0.00
2022-11-23T01:44:33.950Z,0.00
2022-11-23T01:46:45.100Z,0.00
2022-11-23T01:47:46.094Z,0.00
2022-11-23T01:48:46.098Z,0.00
2022-11-23T01:49:46.073Z,0.00
2022-11-23T01:50:46.070Z,0.00
2022-11-23T01:51:46.052Z,0.00
2022-11-23T01:52:46.029Z,0.00
2022-11-23T01:53:46.040Z,0.00
2022-11-23T01:54:46.020Z,0.00
2022-11-23T01:55:45.997Z,0.00
2022-11-23T01:56:45.989Z,0.00
2022-11-23T01:57:45.958Z,0.00
2022-11-23T01:58:45.967Z,0.00
2022-11-23T01:59:45.954Z,0.00
2022-11-23T02:00:46.018Z,0.00
2022-11-23T02:01:45.913Z,0.00
2022-11-23T02:02:45.916Z,0.00
2022-11-23T02:03:45.893Z,0.00
2022-11-23T02:04:45.894Z,0.00
2022-11-23T02:05:45.869Z,0.00
2022-11-23T02:06:45.871Z,0.00
2022-11-23T02:07:45.887Z,0.00
2022-11-23T02:08:45.891Z,0.00
2022-11-23T02:09:45.831Z,0.00
2022-11-23T02:10:45.852Z,0.00
2022-11-23T02:11:45.813Z,0.00
2022-11-23T02:12:45.767Z,0.00
2022-11-23T02:13:45.765Z,0.00
2022-11-23T02:14:45.799Z,0.00
2022-11-23T02:15:45.779Z,0.00
2022-11-23T02:16:45.770Z,0.00
2022-11-23T02:17:45.774Z,0.00
2022-11-23T02:18:45.740Z,0.00
2022-11-23T02:19:45.755Z,0.00
2022-11-23T02:20:45.688Z,0.00
2022-11-23T02:21:45.725Z,0.00
2022-11-23T02:22:45.662Z,0.00
2022-11-23T02:23:45.690Z,0.00
2022-11-23T02:24:45.650Z,0.00
2022-11-23T02:25:45.632Z,0.00
2022-11-23T02:26:45.610Z,0.00
2022-11-23T02:27:47.234Z,0.00
2022-11-23T02:28:45.577Z,0.00
2022-11-23T02:29:45.597Z,0.00
2022-11-23T02:30:45.541Z,0.00
2022-11-23T02:31:45.573Z,0.00
2022-11-23T02:32:45.542Z,0.00
2022-11-23T02:33:45.518Z,0.00
2022-11-23T02:34:45.489Z,0.00
2022-11-23T02:35:45.497Z,0.00
2022-11-23T02:36:45.461Z,0.00
2022-11-23T02:37:45.469Z,0.00
2022-11-23T02:38:45.466Z,0.00
2022-11-23T02:39:45.458Z,0.00
2022-11-23T02:40:45.430Z,0.00
2022-11-23T02:41:45.404Z,0.00
2022-11-23T02:42:45.400Z,0.00
2022-11-23T02:43:45.379Z,0.00
2022-11-23T02:44:45.414Z,0.00
2022-11-23T02:45:45.369Z,0.00
2022-11-23T02:46:45.377Z,0.00
2022-11-23T02:47:45.389Z,0.00
2022-11-23T02:48:45.313Z,0.00
2022-11-23T02:49:45.320Z,0.00
2022-11-23T02:50:45.318Z,0.00
2022-11-23T02:51:45.299Z,0.00
2022-11-23T02:52:45.267Z,0.00
2022-11-23T02:53:45.268Z,0.00
2022-11-23T02:54:45.233Z,0.00
2022-11-23T02:55:45.241Z,0.00
2022-11-23T02:56:45.211Z,0.00
2022-11-23T02:57:45.217Z,0.00
2022-11-23T02:58:45.190Z,0.00
2022-11-23T02:59:45.176Z,0.00
2022-11-23T03:00:45.275Z,0.00
2022-11-23T03:01:45.160Z,0.00
2022-11-23T03:02:45.147Z,0.00
2022-11-23T03:03:45.151Z,0.00
2022-11-23T03:04:45.152Z,0.00
2022-11-23T03:05:45.123Z,0.00
2022-11-23T03:06:45.125Z,0.00
2022-11-23T03:07:45.201Z,0.00
2022-11-23T03:08:45.059Z,0.00
2022-11-23T03:09:45.089Z,0.00
2022-11-23T03:10:45.055Z,0.00
2022-11-23T03:11:45.044Z,0.00
2022-11-23T03:12:45.023Z,0.00
2022-11-23T03:13:45.017Z,0.00
2022-11-23T03:14:44.986Z,0.00
2022-11-23T03:15:44.989Z,0.00
2022-11-23T03:16:44.970Z,0.00
2022-11-23T03:17:44.963Z,0.00
2022-11-23T03:18:44.950Z,0.00
2022-11-23T03:19:44.961Z,0.00
2022-11-23T03:20:44.907Z,0.00
2022-11-23T03:21:44.926Z,0.00
2022-11-23T03:22:44.909Z,0.00
2022-11-23T03:23:44.908Z,0.00
2022-11-23T03:24:44.869Z,0.00
2022-11-23T03:25:44.888Z,0.00
2022-11-23T03:26:44.833Z,0.00
2022-11-23T03:27:44.829Z,0.00
2022-11-23T03:28:44.816Z,0.00
2022-11-23T03:29:44.839Z,0.00
2022-11-23T03:30:44.799Z,0.00
2022-11-23T03:31:44.800Z,0.00
2022-11-23T03:32:44.754Z,0.00
2022-11-23T03:33:44.790Z,0.00
2022-11-23T03:34:44.753Z,0.00
2022-11-23T03:35:44.723Z,0.00
2022-11-23T03:36:44.722Z,0.00
2022-11-23T03:37:44.718Z,0.00
2022-11-23T03:38:44.695Z,0.00
2022-11-23T03:39:47.505Z,0.00
2022-11-23T03:40:44.668Z,0.00
2022-11-23T03:41:44.647Z,0.00
2022-11-23T03:42:44.627Z,0.00
2022-11-23T03:43:44.639Z,0.00
2022-11-23T03:44:44.634Z,0.00
2022-11-23T03:45:44.621Z,0.00
2022-11-23T03:46:44.572Z,0.00
2022-11-23T03:47:44.564Z,0.00
2022-11-23T03:48:44.567Z,0.00
2022-11-23T03:49:44.548Z,0.00
2022-11-23T03:50:44.562Z,0.00
2022-11-23T03:51:44.514Z,0.00
2022-11-23T03:52:44.495Z,0.00
2022-11-23T03:53:44.496Z,0.00
2022-11-23T03:54:44.471Z,0.00
2022-11-23T03:55:44.472Z,0.00
2022-11-23T03:56:44.448Z,0.00
2022-11-23T03:57:44.437Z,0.00
2022-11-23T03:58:44.443Z,0.00
2022-11-23T03:59:44.422Z,0.00
2022-11-23T04:00:44.444Z,0.00
2022-11-23T04:01:44.410Z,0.00
2022-11-23T04:02:44.380Z,0.00
2022-11-23T04:03:44.362Z,0.00
2022-11-23T04:04:44.364Z,0.00
2022-11-23T04:05:44.366Z,0.00
2022-11-23T04:06:44.336Z,0.00
2022-11-23T04:07:44.364Z,0.00
2022-11-23T04:08:44.293Z,0.00
2022-11-23T04:09:44.297Z,0.00
2022-11-23T04:10:44.292Z,0.00
2022-11-23T04:11:44.259Z,0.00
2022-11-23T04:12:44.259Z,0.00
2022-11-23T04:13:44.240Z,0.00
2022-11-23T04:14:44.235Z,0.00
2022-11-23T04:15:44.233Z,0.00
2022-11-23T04:16:44.206Z,0.00
2022-11-23T04:17:44.197Z,0.00
2022-11-23T04:18:44.174Z,0.00
2022-11-23T04:19:44.163Z,0.00
2022-11-23T04:20:44.156Z,0.00
2022-11-23T04:21:44.130Z,0.00
2022-11-23T04:22:44.128Z,0.00
2022-11-23T04:23:44.134Z,0.00
2022-11-23T04:24:44.091Z,0.00
2022-11-23T04:25:44.100Z,0.00
2022-11-23T04:26:44.081Z,0.00
2022-11-23T04:27:44.067Z,0.00
2022-11-23T04:28:44.085Z,0.00
2022-11-23T04:29:44.055Z,0.00
2022-11-23T04:30:44.017Z,0.00
2022-11-23T04:31:44.015Z,0.00
2022-11-23T04:32:44.043Z,0.00
2022-11-23T04:33:43.972Z,0.00
2022-11-23T04:34:43.990Z,0.00
2022-11-23T04:35:43.978Z,0.00
2022-11-23T04:36:43.945Z,0.00
2022-11-23T04:37:43.919Z,0.00
2022-11-23T04:38:43.919Z,0.00
2022-11-23T04:39:43.918Z,0.00
2022-11-23T04:40:43.894Z,0.00
2022-11-23T04:41:43.887Z,0.00
2022-11-23T04:42:43.879Z,0.00
2022-11-23T04:43:43.874Z,0.00
2022-11-23T04:44:43.828Z,0.00
2022-11-23T04:45:43.833Z,0.00
2022-11-23T04:46:43.802Z,0.00
2022-11-23T04:47:43.835Z,0.00
2022-11-23T04:48:43.777Z,0.00
2022-11-23T04:49:43.825Z,0.00
2022-11-23T04:50:46.600Z,0.00
2022-11-23T04:51:43.758Z,0.00
2022-11-23T04:52:43.738Z,0.00
2022-11-23T04:53:43.757Z,0.00
2022-11-23T04:54:43.698Z,0.00
2022-11-23T04:55:43.707Z,0.00
2022-11-23T04:56:43.682Z,0.00
2022-11-23T04:57:43.663Z,0.00
2022-11-23T04:58:43.660Z,0.00
2022-11-23T04:59:43.658Z,0.00
2022-11-23T05:00:43.784Z,0.00
2022-11-23T05:01:43.617Z,0.00
2022-11-23T05:02:43.604Z,0.00
2022-11-23T05:03:43.621Z,0.00
2022-11-23T05:04:43.594Z,0.00
2022-11-23T05:05:43.579Z,0.00
2022-11-23T05:06:43.561Z,0.00
2022-11-23T05:07:43.610Z,0.00
2022-11-23T05:08:43.528Z,0.00
2022-11-23T05:09:43.531Z,0.00
2022-11-23T05:10:43.530Z,0.00
2022-11-23T05:11:43.492Z,0.00
2022-11-23T05:12:43.493Z,0.00
2022-11-23T05:13:43.457Z,0.00
2022-11-23T05:14:43.476Z,0.00
2022-11-23T05:15:43.435Z,0.00
2022-11-23T05:16:43.423Z,0.00
2022-11-23T05:17:43.416Z,0.00
2022-11-23T05:18:43.398Z,0.00
2022-11-23T05:19:43.405Z,0.00
2022-11-23T05:20:43.373Z,0.00
2022-11-23T05:21:43.374Z,0.00
2022-11-23T05:22:43.354Z,0.00
2022-11-23T05:23:43.355Z,0.00
2022-11-23T05:24:43.312Z,0.00
2022-11-23T05:25:43.318Z,0.00
2022-11-23T05:26:43.307Z,0.00
2022-11-23T05:27:43.314Z,0.00
2022-11-23T05:28:43.281Z,0.00
2022-11-23T05:29:43.282Z,0.00
2022-11-23T05:30:43.238Z,0.00
2022-11-23T05:31:43.251Z,0.00
2022-11-23T05:32:43.227Z,0.00
2022-11-23T05:33:43.238Z,0.00
2022-11-23T05:34:43.197Z,0.00
2022-11-23T05:35:43.183Z,0.00
2022-11-23T05:36:43.177Z,0.00
2022-11-23T05:37:43.172Z,0.00
2022-11-23T05:38:43.134Z,0.00
2022-11-23T05:39:43.168Z,0.00
2022-11-23T05:40:43.125Z,0.00
2022-11-23T05:41:43.104Z,0.00
2022-11-23T05:42:43.114Z,0.00
2022-11-23T05:43:43.103Z,0.00
2022-11-23T05:44:43.058Z,0.00
2022-11-23T05:45:43.080Z,0.00
2022-11-23T05:46:43.047Z,0.00
2022-11-23T05:47:43.054Z,0.00
2022-11-23T05:48:43.008Z,0.00
2022-11-23T05:49:43.025Z,0.00
2022-11-23T05:50:43.000Z,0.00
2022-11-23T05:51:42.991Z,0.00
2022-11-23T05:52:42.957Z,0.00
2022-11-23T05:53:42.978Z,0.00
2022-11-23T05:54:42.983Z,0.00
2022-11-23T05:55:42.939Z,0.00
2022-11-23T05:56:42.911Z,0.00
2022-11-23T05:57:42.895Z,0.00
2022-11-23T05:58:42.877Z,0.00
2022-11-23T05:59:42.890Z,0.00
2022-11-23T06:00:42.870Z,0.00
2022-11-23T06:01:42.853Z,0.00
2022-11-23T06:02:42.846Z,0.00
2022-11-23T06:03:42.854Z,0.00
2022-11-23T06:04:42.834Z,0.00
2022-11-23T06:05:42.812Z,0.00
2022-11-23T06:06:42.784Z,0.00
2022-11-23T06:07:42.845Z,0.00
2022-11-23T06:08:46.636Z,0.00
2022-11-23T06:09:42.750Z,0.00
2022-11-23T06:10:42.737Z,0.00
2022-11-23T06:11:42.742Z,0.00
2022-11-23T06:12:42.704Z,0.00
2022-11-23T06:13:42.706Z,0.00
2022-11-23T06:14:42.672Z,0.00
2022-11-23T06:15:42.681Z,0.00
2022-11-23T06:16:42.660Z,0.00
2022-11-23T06:17:42.661Z,0.00
2022-11-23T06:18:42.647Z,0.00
2022-11-23T06:19:42.647Z,0.00
2022-11-23T06:20:42.600Z,0.00
2022-11-23T06:21:47.443Z,0.00
2022-11-23T06:22:42.577Z,0.00
2022-11-23T06:23:42.583Z,0.00
2022-11-23T06:24:42.545Z,0.00
2022-11-23T06:25:42.552Z,0.00
2022-11-23T06:26:42.517Z,0.00
2022-11-23T06:27:42.534Z,0.00
2022-11-23T06:28:42.498Z,0.00
2022-11-23T06:29:42.494Z,0.00
2022-11-23T06:30:42.480Z,0.00
2022-11-23T06:31:42.472Z,0.00
2022-11-23T06:32:42.444Z,0.00
2022-11-23T06:33:42.446Z,5.62
2022-11-23T06:34:42.431Z,5.62
2022-11-23T06:35:42.426Z,5.62
2022-11-23T06:36:42.391Z,5.62
2022-11-23T06:37:42.380Z,5.62
2022-11-23T06:38:42.382Z,5.62
2022-11-23T06:39:42.374Z,5.62
2022-11-23T06:40:42.348Z,5.62
2022-11-23T06:41:42.330Z,5.62
2022-11-23T06:42:42.361Z,11.25
2022-11-23T06:43:42.333Z,11.25
2022-11-23T06:44:42.299Z,11.25
2022-11-23T06:45:42.300Z,11.25
2022-11-23T06:46:42.296Z,11.25
2022-11-23T06:47:42.271Z,11.25
2022-11-23T06:48:42.241Z,16.88
2022-11-23T06:49:42.234Z,16.88
2022-11-23T06:50:42.229Z,16.88
2022-11-23T06:51:42.240Z,16.88
2022-11-23T06:52:42.200Z,16.88
2022-11-23T06:53:42.171Z,16.88
2022-11-23T06:54:42.182Z,22.50
2022-11-23T06:55:42.149Z,22.50
2022-11-23T06:56:42.177Z,22.50
2022-11-23T06:57:42.157Z,22.50
2022-11-23T06:58:42.152Z,22.50
2022-11-23T06:59:44.936Z,22.50
2022-11-23T07:00:42.161Z,28.12
2022-11-23T07:01:42.167Z,28.12
2022-11-23T07:02:42.120Z,28.12
2022-11-23T07:03:42.118Z,28.12
2022-11-23T07:04:42.048Z,28.12
2022-11-23T07:05:42.035Z,33.75
2022-11-23T07:06:42.076Z,33.75
2022-11-23T07:07:42.097Z,33.75
2022-11-23T07:08:42.014Z,33.75
2022-11-23T07:09:41.990Z,39.38
2022-11-23T07:10:41.985Z,39.38
2022-11-23T07:11:41.987Z,39.38
2022-11-23T07:12:42.007Z,45.00
2022-11-23T07:13:42.019Z,45.00
2022-11-23T07:14:41.918Z,45.00
2022-11-23T07:15:41.914Z,45.00
2022-11-23T07:16:41.901Z,50.62
2022-11-23T07:17:41.867Z,50.62
2022-11-23T07:18:41.880Z,50.62
2022-11-23T07:19:41.836Z,56.25
2022-11-23T07:20:41.826Z,56.25
2022-11-23T07:21:41.817Z,56.25
2022-11-23T07:22:41.823Z,61.88
2022-11-23T07:23:41.804Z,61.88
2022-11-23T07:24:46.508Z,61.88
2022-11-23T07:25:41.781Z,61.88
2022-11-23T07:26:41.771Z,67.50
2022-11-23T07:27:41.749Z,67.50
2022-11-23T07:28:41.759Z,67.50
2022-11-23T07:29:41.708Z,67.50
2022-11-23T07:30:41.716Z,67.50
2022-11-23T07:31:41.707Z,67.50
2022-11-23T07:32:41.697Z,73.12
2022-11-23T07:33:41.668Z,73.12
2022-11-23T07:34:41.679Z,73.12
2022-11-23T07:35:41.648Z,73.12
2022-11-23T07:36:41.625Z,73.12
2022-11-23T07:37:41.607Z,78.75
2022-11-23T07:38:41.600Z,84.38
2022-11-23T07:39:57.009Z,90.00
2022-11-23T07:40:41.583Z,90.00
2022-11-23T07:41:41.586Z,84.38
2022-11-23T07:42:45.025Z,84.38
2022-11-23T07:43:41.540Z,90.00
2022-11-23T07:44:41.558Z,90.00
2022-11-23T07:45:47.674Z,95.62
2022-11-23T07:46:41.563Z,106.88
2022-11-23T07:47:41.511Z,112.50
2022-11-23T07:48:41.519Z,112.50
2022-11-23T07:49:41.523Z,112.50
2022-11-23T07:50:41.477Z,112.50
2022-11-23T07:51:41.530Z,118.12
2022-11-23T07:52:41.426Z,129.38
2022-11-23T07:53:41.423Z,157.50
2022-11-23T07:54:41.487Z,185.62
2022-11-23T07:55:41.402Z,241.88
2022-11-23T07:56:41.392Z,292.50
2022-11-23T07:57:41.392Z,320.62
2022-11-23T07:58:41.507Z,315.00
2022-11-23T07:59:41.457Z,275.62
2022-11-23T08:00:41.436Z,168.75
2022-11-23T08:01:41.361Z,348.75
2022-11-23T08:02:53.028Z,365.62
2022-11-23T08:03:41.395Z,354.38
2022-11-23T08:04:41.334Z,348.75
2022-11-23T08:05:41.266Z,405.00
2022-11-23T08:06:41.266Z,444.38
2022-11-23T08:07:41.347Z,275.62
2022-11-23T08:08:41.253Z,382.50
2022-11-23T08:09:41.209Z,281.25
2022-11-23T08:10:46.101Z,275.62
2022-11-23T08:11:41.265Z,275.62
2022-11-23T08:12:41.194Z,264.38
2022-11-23T08:13:41.223Z,264.38
2022-11-23T08:14:41.196Z,247.50
2022-11-23T08:15:41.222Z,236.25
2022-11-23T08:16:41.202Z,230.62
2022-11-23T08:17:41.136Z,219.38
2022-11-23T08:18:41.163Z,219.38
2022-11-23T08:19:41.140Z,219.38
2022-11-23T08:20:41.146Z,213.75
2022-11-23T08:21:41.106Z,213.75
2022-11-23T08:22:41.107Z,208.12
2022-11-23T08:23:41.144Z,208.12
2022-11-23T08:24:41.041Z,208.12
2022-11-23T08:25:41.027Z,208.12
2022-11-23T08:26:41.048Z,202.50
2022-11-23T08:27:41.061Z,202.50
2022-11-23T08:28:40.969Z,202.50
2022-11-23T08:29:41.006Z,196.88
2022-11-23T08:30:41.013Z,202.50
2022-11-23T08:31:41.026Z,202.50
2022-11-23T08:32:40.963Z,208.12
2022-11-23T08:33:41.214Z,208.12
2022-11-23T08:34:41.000Z,213.75
2022-11-23T08:35:40.888Z,219.38
2022-11-23T08:36:41.003Z,230.62
2022-11-23T08:37:40.872Z,241.88
2022-11-23T08:38:40.917Z,253.12
2022-11-23T08:39:40.855Z,264.38
2022-11-23T08:40:40.895Z,270.00
2022-11-23T08:41:40.923Z,275.62
2022-11-23T08:42:41.420Z,275.62
2022-11-23T08:43:40.981Z,275.62
2022-11-23T08:44:40.822Z,281.25
2022-11-23T08:45:41.037Z,286.88
2022-11-23T08:46:40.827Z,320.62
2022-11-23T08:47:40.733Z,309.38
2022-11-23T08:48:40.803Z,326.25
2022-11-23T08:49:40.818Z,410.62
2022-11-23T08:50:40.734Z,331.88
2022-11-23T08:51:43.394Z,309.38
2022-11-23T08:52:40.854Z,309.38
2022-11-23T08:53:40.716Z,315.00
2022-11-23T08:54:40.647Z,326.25
2022-11-23T08:55:40.661Z,326.25
2022-11-23T08:56:40.672Z,337.50
2022-11-23T08:57:40.798Z,343.12
2022-11-23T08:58:40.623Z,348.75
2022-11-23T08:59:40.560Z,354.38
2022-11-23T09:00:40.564Z,354.38
2022-11-23T09:01:40.587Z,360.00
2022-11-23T09:02:40.542Z,365.62
2022-11-23T09:03:40.553Z,376.88
2022-11-23T09:04:40.538Z,388.12
2022-11-23T09:05:40.496Z,399.38
2022-11-23T09:06:40.481Z,410.62
2022-11-23T09:07:40.540Z,416.25
2022-11-23T09:08:40.476Z,489.38
2022-11-23T09:09:40.461Z,506.25
2022-11-23T09:10:40.467Z,495.00
2022-11-23T09:11:40.481Z,601.88
2022-11-23T09:12:40.396Z,472.50
2022-11-23T09:13:40.418Z,506.25
2022-11-23T09:14:40.375Z,630.00
2022-11-23T09:15:40.371Z,658.12
2022-11-23T09:16:40.327Z,601.88
2022-11-23T09:17:40.313Z,573.75
2022-11-23T09:18:40.342Z,579.38
2022-11-23T09:19:40.352Z,618.75
2022-11-23T09:20:40.279Z,568.12
2022-11-23T09:21:40.296Z,483.75
2022-11-23T09:22:40.312Z,731.25
2022-11-23T09:23:40.291Z,736.88
2022-11-23T09:24:40.267Z,905.62
2022-11-23T09:25:40.240Z,466.88
2022-11-23T09:26:40.217Z,427.50
2022-11-23T09:27:40.222Z,416.25
2022-11-23T09:28:44.556Z,388.12
2022-11-23T09:29:40.236Z,376.88
2022-11-23T09:30:40.182Z,371.25
2022-11-23T09:31:40.182Z,399.38
2022-11-23T09:32:40.170Z,438.75
2022-11-23T09:33:40.156Z,365.62
2022-11-23T09:34:40.150Z,461.25
2022-11-23T09:35:43.793Z,388.12
2022-11-23T09:36:40.281Z,511.88
2022-11-23T09:37:40.062Z,405.00
2022-11-23T09:38:56.171Z,517.50
2022-11-23T09:39:40.074Z,416.25
2022-11-23T09:40:40.046Z,568.12
2022-11-23T09:41:40.013Z,523.12
2022-11-23T09:42:39.988Z,618.75
2022-11-23T09:43:39.972Z,500.62
2022-11-23T09:44:39.972Z,680.62
2022-11-23T09:45:39.964Z,765.00
2022-11-23T09:46:39.959Z,624.38
2022-11-23T09:47:39.920Z,821.25
2022-11-23T09:48:39.910Z,905.62
2022-11-23T09:49:39.922Z,849.38
2022-11-23T09:50:39.914Z,849.38
2022-11-23T09:51:39.910Z,843.75
2022-11-23T09:52:39.894Z,849.38
2022-11-23T09:53:39.852Z,821.25
2022-11-23T09:54:39.833Z,753.75
2022-11-23T09:55:39.862Z,776.25
2022-11-23T09:56:39.830Z,748.12
2022-11-23T09:57:39.806Z,793.12
2022-11-23T09:58:39.794Z,804.38
2022-11-23T09:59:39.810Z,804.38
2022-11-23T10:00:39.795Z,815.62
2022-11-23T10:01:39.796Z,776.25
2022-11-23T10:02:39.736Z,838.12
2022-11-23T10:03:43.921Z,860.62
2022-11-23T10:04:39.750Z,838.12
2022-11-23T10:05:39.727Z,832.50
2022-11-23T10:06:39.674Z,793.12
2022-11-23T10:07:39.918Z,866.25
2022-11-23T10:08:39.715Z,860.62
2022-11-23T10:09:39.774Z,871.88
2022-11-23T10:10:39.719Z,855.00
2022-11-23T10:11:39.729Z,826.88
2022-11-23T10:12:40.225Z,793.12
2022-11-23T10:13:39.612Z,697.50
2022-11-23T10:14:39.684Z,663.75
2022-11-23T10:15:39.630Z,675.00
2022-11-23T10:16:39.624Z,663.75
2022-11-23T10:17:39.623Z,568.12
2022-11-23T10:18:39.605Z,478.12
2022-11-23T10:19:39.600Z,483.75
2022-11-23T10:20:39.658Z,607.50
2022-11-23T10:21:39.542Z,708.75
2022-11-23T10:22:39.569Z,663.75
2022-11-23T10:23:39.692Z,635.62
2022-11-23T10:24:39.544Z,725.62
2022-11-23T10:25:39.784Z,765.00
2022-11-23T10:26:39.457Z,691.88
2022-11-23T10:27:39.613Z,613.12
2022-11-23T10:28:39.404Z,686.25
2022-11-23T10:29:39.471Z,776.25
2022-11-23T10:30:39.518Z,686.25
2022-11-23T10:31:39.345Z,590.62
2022-11-23T10:32:39.325Z,568.12
2022-11-23T10:33:39.325Z,596.25
2022-11-23T10:34:39.312Z,511.88
2022-11-23T10:35:39.289Z,590.62
2022-11-23T10:36:39.297Z,472.50
2022-11-23T10:37:39.303Z,433.12
2022-11-23T10:38:39.241Z,337.50
2022-11-23T10:39:39.234Z,365.62
2022-11-23T10:40:39.242Z,275.62
2022-11-23T10:41:39.216Z,270.00
2022-11-23T10:42:39.211Z,286.88
2022-11-23T10:43:39.172Z,270.00
2022-11-23T10:44:39.169Z,275.62
2022-11-23T10:45:39.170Z,241.88
2022-11-23T10:46:39.145Z,303.75
2022-11-23T10:47:39.138Z,326.25
2022-11-23T10:48:39.127Z,275.62
2022-11-23T10:49:39.107Z,303.75
2022-11-23T10:50:39.089Z,337.50
2022-11-23T10:51:39.093Z,421.88
2022-11-23T10:52:39.100Z,382.50
2022-11-23T10:53:39.082Z,382.50
2022-11-23T10:54:39.071Z,433.12
2022-11-23T10:55:39.023Z,382.50
2022-11-23T10:56:39.029Z,421.88
2022-11-23T10:57:39.018Z,495.00
2022-11-23T10:58:38.988Z,450.00
2022-11-23T10:59:39.001Z,427.50
2022-11-23T11:00:38.980Z,483.75
2022-11-23T11:01:38.981Z,450.00
2022-11-23T11:02:38.947Z,382.50
2022-11-23T11:03:38.945Z,405.00
2022-11-23T11:04:38.924Z,444.38
2022-11-23T11:06:09.407Z,371.25
2022-11-23T11:06:38.875Z,376.88
2022-11-23T11:07:38.923Z,365.62
2022-11-23T11:08:38.883Z,309.38
2022-11-23T11:09:38.848Z,286.88
2022-11-23T11:10:38.878Z,309.38
2022-11-23T11:11:38.849Z,331.88
2022-11-23T11:12:38.806Z,365.62
2022-11-23T11:13:38.834Z,365.62
2022-11-23T11:14:43.269Z,399.38
2022-11-23T11:15:47.251Z,438.75
2022-11-23T11:16:38.942Z,489.38
2022-11-23T11:17:38.726Z,528.75
2022-11-23T11:18:38.722Z,427.50
2022-11-23T11:19:38.710Z,376.88
2022-11-23T11:20:38.707Z,421.88
2022-11-23T11:21:38.698Z,517.50
2022-11-23T11:22:41.073Z,455.62
2022-11-23T11:23:38.679Z,427.50
2022-11-23T11:24:38.670Z,427.50
2022-11-23T11:25:38.640Z,410.62
2022-11-23T11:26:38.600Z,416.25
2022-11-23T11:27:38.600Z,376.88
2022-11-23T11:28:38.595Z,298.12
2022-11-23T11:29:39.519Z,275.62
2022-11-23T11:30:38.570Z,292.50
2022-11-23T11:31:38.571Z,303.75
2022-11-23T11:32:38.531Z,298.12
2022-11-23T11:33:38.536Z,309.38
2022-11-23T11:34:38.501Z,371.25
2022-11-23T11:35:38.511Z,416.25
2022-11-23T11:36:38.495Z,472.50
2022-11-23T11:37:38.460Z,478.12
2022-11-23T11:38:38.469Z,438.75
2022-11-23T11:39:38.449Z,455.62
2022-11-23T11:40:38.425Z,478.12
2022-11-23T11:41:38.419Z,517.50
2022-11-23T11:42:38.416Z,517.50
2022-11-23T11:43:40.276Z,545.62
2022-11-23T11:44:38.368Z,472.50
2022-11-23T11:45:38.366Z,455.62
2022-11-23T11:46:38.404Z,545.62
2022-11-23T11:47:38.348Z,568.12
2022-11-23T11:48:38.340Z,618.75
2022-11-23T11:49:38.323Z,630.00
2022-11-23T11:50:38.339Z,618.75
2022-11-23T11:51:38.303Z,596.25
2022-11-23T11:52:38.293Z,618.75
2022-11-23T11:53:39.721Z,641.25
2022-11-23T11:54:38.235Z,708.75
2022-11-23T11:55:38.251Z,680.62
2022-11-23T11:56:38.246Z,703.12
2022-11-23T11:57:38.252Z,646.88
2022-11-23T11:58:42.864Z,590.62
2022-11-23T11:59:38.197Z,601.88
2022-11-23T12:00:42.192Z,663.75
2022-11-23T12:01:38.165Z,725.62
2022-11-23T12:02:38.217Z,720.00
2022-11-23T12:03:38.135Z,675.00
2022-11-23T12:04:38.109Z,635.62
2022-11-23T12:05:38.096Z,703.12
2022-11-23T12:06:38.088Z,720.00
2022-11-23T12:07:38.135Z,765.00
2022-11-23T12:08:38.053Z,793.12
2022-11-23T12:09:38.046Z,742.50
2022-11-23T12:10:38.098Z,590.62
2022-11-23T12:11:38.047Z,410.62
2022-11-23T12:12:37.998Z,286.88
2022-11-23T12:13:38.030Z,247.50
2022-11-23T12:14:37.968Z,241.88
2022-11-23T12:15:53.384Z,241.88
2022-11-23T12:16:37.954Z,236.25
2022-11-23T12:17:37.953Z,230.62
2022-11-23T12:18:37.933Z,230.62
2022-11-23T12:19:37.939Z,225.00
2022-11-23T12:20:37.902Z,230.62
2022-11-23T12:21:37.952Z,236.25
2022-11-23T12:22:37.889Z,241.88
2022-11-23T12:23:37.855Z,247.50
2022-11-23T12:24:37.857Z,253.12
2022-11-23T12:25:37.826Z,247.50
2022-11-23T12:26:37.807Z,247.50
2022-11-23T12:27:39.299Z,253.12
2022-11-23T12:28:37.806Z,258.75
2022-11-23T12:29:37.791Z,264.38
2022-11-23T12:30:37.782Z,264.38
2022-11-23T12:31:37.760Z,270.00
2022-11-23T12:32:37.750Z,275.62
2022-11-23T12:33:37.733Z,264.38
2022-11-23T12:34:37.747Z,275.62
2022-11-23T12:35:37.729Z,275.62
2022-11-23T12:36:37.696Z,286.88
2022-11-23T12:37:37.746Z,286.88
2022-11-23T12:38:37.662Z,286.88
2022-11-23T12:39:37.675Z,286.88
2022-11-23T12:40:37.651Z,292.50
2022-11-23T12:41:37.617Z,286.88
2022-11-23T12:42:37.595Z,281.25
2022-11-23T12:43:37.607Z,264.38
2022-11-23T12:44:37.587Z,258.75
2022-11-23T12:45:37.588Z,258.75
2022-11-23T12:46:37.565Z,264.38
2022-11-23T12:47:37.553Z,275.62
2022-11-23T12:48:37.537Z,275.62
2022-11-23T12:49:39.170Z,270.00
2022-11-23T12:50:37.533Z,264.38
2022-11-23T12:51:37.490Z,264.38
2022-11-23T12:52:37.484Z,264.38
2022-11-23T12:53:37.514Z,275.62
2022-11-23T12:54:37.653Z,281.25
2022-11-23T12:55:37.453Z,286.88
2022-11-23T12:56:37.439Z,292.50